createdAt,value
2018-07-17T00:03:04.000Z,26.11
2018-07-17T00:13:04.000Z,26.09
2018-07-17T00:23:04.000Z,26.04
2018-07-17T00:33:04.000Z,25.98
2018-07-17T00:43:04.000Z,25.98
2018-07-17T00:53:04.000Z,25.96
2018-07-17T01:03:04.000Z,25.94
2018-07-17T01:13:04.000Z,25.89
2018-07-17T01:23:04.000Z,25.82
2018-07-17T01:33:04.000Z,25.79
2018-07-17T01:43:04.000Z,25.74
2018-07-17T01:53:04.000Z,25.71
2018-07-17T02:03:04.000Z,25.69
2018-07-17T02:13:04.000Z,25.65
2018-07-17T02:23:04.000Z,25.62
2018-07-17T02:33:04.000Z,25.6
2018-07-17T02:43:04.000Z,25.58
2018-07-17T02:53:04.000Z,25.56
2018-07-17T03:03:04.000Z,25.51
2018-07-17T03:13:04.000Z,25.47
2018-07-17T03:23:04.000Z,25.44
2018-07-17T03:33:05.000Z,25.37
2018-07-17T03:43:05.000Z,25.37
2018-07-17T03:53:05.000Z,25.34
2018-07-17T04:03:04.000Z,25.3
2018-07-17T04:13:04.000Z,25.29
2018-07-17T04:23:04.000Z,25.28
2018-07-17T04:33:04.000Z,25.25
2018-07-17T04:43:04.000Z,25.3
2018-07-17T04:53:04.000Z,25.26
2018-07-17T05:03:04.000Z,25.35
2018-07-17T05:13:04.000Z,25.49
2018-07-17T05:23:04.000Z,25.59
2018-07-17T05:33:04.000Z,25.69
2018-07-17T05:43:04.000Z,25.77
2018-07-17T05:53:04.000Z,25.77
2018-07-17T06:03:04.000Z,25.76
2018-07-17T06:13:04.000Z,25.91
2018-07-17T06:23:04.000Z,25.85
2018-07-17T06:33:04.000Z,25.78
2018-07-17T06:43:04.000Z,25.94
2018-07-17T06:53:04.000Z,26.09
2018-07-17T07:03:04.000Z,26.15
2018-07-17T07:13:05.000Z,26.15
2018-07-17T07:23:05.000Z,26.24
2018-07-17T07:33:05.000Z,26.22
2018-07-17T07:43:05.000Z,26.34
2018-07-17T07:53:05.000Z,26.46
2018-07-17T08:03:05.000Z,26.74
2018-07-17T08:13:05.000Z,26.81
2018-07-17T08:23:05.000Z,27.03
2018-07-17T08:33:05.000Z,27.02
2018-07-17T08:43:05.000Z,27.2
2018-07-17T08:53:05.000Z,27.37
2018-07-17T09:03:05.000Z,27.5
2018-07-17T09:13:05.000Z,27.66
2018-07-17T09:23:05.000Z,27.77
2018-07-17T09:33:05.000Z,27.99
2018-07-17T09:43:05.000Z,28.1
2018-07-17T09:53:05.000Z,28.14
2018-07-17T10:03:05.000Z,28.38
2018-07-17T10:13:05.000Z,28.35
2018-07-17T10:23:05.000Z,28.33
2018-07-17T10:33:05.000Z,28.74
2018-07-17T10:43:05.000Z,28.7
2018-07-17T10:53:05.000Z,28.89
2018-07-17T11:03:05.000Z,28.9
2018-07-17T11:13:05.000Z,28.92
2018-07-17T11:23:05.000Z,29.04
2018-07-17T11:33:05.000Z,29.16
2018-07-17T11:43:06.000Z,29.25
2018-07-17T11:53:05.000Z,29.25
2018-07-17T12:03:05.000Z,29.35
2018-07-17T12:13:05.000Z,29.31
2018-07-17T12:23:05.000Z,29.47
2018-07-17T12:33:06.000Z,29.43
2018-07-17T12:43:05.000Z,29.42
2018-07-17T12:53:05.000Z,29.48
2018-07-17T13:03:09.000Z,29.5
2018-07-17T13:13:05.000Z,29.58
2018-07-17T13:23:05.000Z,29.59
2018-07-17T13:33:05.000Z,29.61
2018-07-17T13:43:05.000Z,29.47
2018-07-17T13:53:05.000Z,29.65
2018-07-17T14:03:05.000Z,29.53
2018-07-17T14:13:05.000Z,29.62
2018-07-17T14:23:05.000Z,29.29
2018-07-17T14:33:05.000Z,29.4
2018-07-17T14:43:06.000Z,29.39
2018-07-17T14:53:05.000Z,29.36
2018-07-17T15:03:05.000Z,29.34
2018-07-17T15:13:05.000Z,29.39
2018-07-17T15:23:06.000Z,29.43
2018-07-17T15:33:06.000Z,29.33
2018-07-17T15:43:06.000Z,29.27
2018-07-17T15:53:06.000Z,29.33
2018-07-17T16:03:06.000Z,29.26
2018-07-17T16:13:06.000Z,29.22
2018-07-17T16:23:06.000Z,29.2
2018-07-17T16:33:06.000Z,29.21
2018-07-17T16:43:06.000Z,29.12
2018-07-17T16:53:06.000Z,29.06
2018-07-17T17:03:06.000Z,29.11
2018-07-17T17:13:06.000Z,29.05
2018-07-17T17:23:06.000Z,29.02
2018-07-17T17:33:06.000Z,28.98
2018-07-17T17:43:06.000Z,28.96
2018-07-17T17:53:06.000Z,28.94
2018-07-17T18:03:06.000Z,28.92
2018-07-17T18:13:06.000Z,28.87
2018-07-17T18:23:06.000Z,28.81
2018-07-17T18:33:06.000Z,28.75
2018-07-17T18:43:06.000Z,28.74
2018-07-17T18:53:06.000Z,28.68
2018-07-17T19:03:06.000Z,28.62
2018-07-17T19:13:06.000Z,28.54
2018-07-17T19:23:06.000Z,28.49
2018-07-17T19:33:06.000Z,28.36
2018-07-17T19:43:06.000Z,28.3
2018-07-17T19:53:06.000Z,28.24
2018-07-17T20:03:06.000Z,28.07
2018-07-17T20:13:06.000Z,27.88
2018-07-17T20:23:06.000Z,27.86
2018-07-17T20:33:06.000Z,27.87
2018-07-17T20:43:09.000Z,27.7
2018-07-17T20:53:06.000Z,27.7
2018-07-17T21:03:06.000Z,27.64
2018-07-17T21:13:06.000Z,27.56
2018-07-17T21:23:06.000Z,27.52
2018-07-17T21:33:06.000Z,27.45
2018-07-17T21:43:06.000Z,27.39
2018-07-17T21:53:06.000Z,27.31
2018-07-17T22:03:06.000Z,27.27
2018-07-17T22:13:06.000Z,27.15
2018-07-17T22:23:06.000Z,27.1
2018-07-17T22:33:06.000Z,27.09
2018-07-17T22:43:06.000Z,26.96
2018-07-17T22:53:06.000Z,26.95
2018-07-17T23:03:07.000Z,26.91
2018-07-17T23:13:07.000Z,26.8
2018-07-17T23:23:07.000Z,26.72
2018-07-17T23:33:07.000Z,26.76
2018-07-17T23:43:07.000Z,26.67
2018-07-17T23:53:07.000Z,26.59
